Time;durP1;ratioP1;P1;durP2;ratioP2;P2;SDS_P1;SDS_P2;PMS_P1;PMS_P2;Temp;Humidity;BMP_temperature;BMP_pressure;BME280_temperature;BME280_humidity;BME280_pressure;Samples;Min_cycle;Max_cycle;Signal;HPM_P1;HPM_P2
2022/12/19 00:03:26;;;;;;;6.13;5.00;;;;;;;-3.10;100.00;99322.25;15276512;19;20021;-52
2022/12/19 00:08:55;;;;;;;6.07;4.90;;;;;;;-2.99;100.00;99292.03;15286385;19;20026;-54
2022/12/19 00:14:20;;;;;;;5.93;5.00;;;;;;;-2.88;100.00;99303.03;15285808;19;20027;-53
2022/12/19 00:19:45;;;;;;;5.35;4.60;;;;;;;-2.88;100.00;99304.84;15285361;19;20839;-52
2022/12/19 00:25:13;;;;;;;5.40;4.72;;;;;;;-2.81;100.00;99296.66;15285552;19;20602;-51
2022/12/19 00:30:39;;;;;;;6.18;4.88;;;;;;;-2.77;100.00;99296.56;15284180;19;20051;-52
2022/12/19 00:36:00;;;;;;;5.53;4.82;;;;;;;-2.72;100.00;99278.75;15271442;19;20022;-52
2022/12/19 00:41:30;;;;;;;5.85;4.43;;;;;;;-2.66;100.00;99289.09;15279489;19;20034;-51
2022/12/19 00:46:52;;;;;;;6.10;5.07;;;;;;;-2.64;100.00;99305.72;15287239;19;20478;-55
2022/12/19 00:52:17;;;;;;;5.85;4.70;;;;;;;-2.55;100.00;99313.31;15282268;19;20103;-53
2022/12/19 00:57:44;;;;;;;6.55;5.03;;;;;;;-2.50;100.00;99295.53;15283170;19;20081;-55
2022/12/19 01:03:11;;;;;;;5.63;4.63;;;;;;;-2.45;100.00;99286.59;15284227;19;20021;-54
2022/12/19 01:08:36;;;;;;;5.78;4.60;;;;;;;-2.34;100.00;99311.63;15271993;19;20098;-54
2022/12/19 01:14:03;;;;;;;7.03;4.95;;;;;;;-2.23;100.00;99302.44;15297982;19;20043;-55
2022/12/19 01:19:35;;;;;;;5.88;4.90;;;;;;;-2.29;100.00;99303.53;15296653;19;20411;-56
2022/12/19 01:25:02;;;;;;;6.20;5.03;;;;;;;-2.29;100.00;99290.34;15297447;19;20039;-54
2022/12/19 01:30:29;;;;;;;6.70;5.18;;;;;;;-2.27;100.00;99280.59;15298303;19;20060;-55
2022/12/19 01:35:54;;;;;;;7.38;4.95;;;;;;;-2.27;100.00;99267.38;15295048;19;20014;-54
2022/12/19 01:41:19;;;;;;;5.97;5.22;;;;;;;-2.24;100.00;99280.47;15287139;19;20372;-55
2022/12/19 01:46:49;;;;;;;5.47;4.78;;;;;;;-2.19;100.00;99257.41;15296762;19;20465;-55
2022/12/19 01:52:16;;;;;;;5.90;4.63;;;;;;;-2.13;100.00;99245.75;15293995;19;20032;-55
2022/12/19 01:57:41;;;;;;;7.18;5.35;;;;;;;-2.08;100.00;99227.09;15295736;19;20902;-57
2022/12/19 02:03:14;;;;;;;5.60;4.35;;;;;;;-2.00;100.00;99239.97;15291846;19;20015;-55
2022/12/19 02:08:41;;;;;;;5.47;4.47;;;;;;;-1.97;100.00;99239.84;15286842;19;20836;-55
2022/12/19 02:14:06;;;;;;;5.35;4.43;;;;;;;-2.00;100.00;99222.34;15294114;19;20369;-54
2022/12/19 02:20:11;;;;;;;6.50;5.13;;;;;;;-2.02;100.00;99229.47;15290064;19;20026;-57
2022/12/19 02:26:08;;;;;;;6.53;5.15;;;;;;;-2.04;100.00;99233.94;15296230;19;20010;-53
2022/12/19 02:31:39;;;;;;;5.40;4.68;;;;;;;-2.03;100.00;99233.03;15316343;19;20014;-54
2022/12/19 02:37:10;;;;;;;5.22;4.30;;;;;;;-2.02;100.00;99229.47;15298949;19;20433;-55
2022/12/19 02:42:40;;;;;;;6.15;4.90;;;;;;;-2.02;100.00;99222.41;15279357;19;20018;-55
2022/12/19 02:48:10;;;;;;;6.50;5.00;;;;;;;-1.98;100.00;99217.00;15289268;19;20026;-56
2022/12/19 02:53:44;;;;;;;6.28;4.55;;;;;;;-1.92;100.00;99212.31;15289245;19;20014;-54
2022/12/19 02:59:24;;;;;;;6.57;4.60;;;;;;;-1.87;100.00;99215.66;15284055;19;20026;-54
2022/12/19 03:05:02;;;;;;;6.13;4.50;;;;;;;-1.81;100.00;99235.66;15289203;19;20486;-52
2022/12/19 03:10:36;;;;;;;5.35;4.50;;;;;;;-1.77;100.00;99216.13;15286504;19;20018;-51
2022/12/19 03:16:01;;;;;;;4.80;4.30;;;;;;;-1.72;100.00;99216.78;15276338;19;20019;-51
2022/12/19 03:21:36;;;;;;;5.07;4.28;;;;;;;-1.67;100.00;99206.03;15286441;19;20014;-51
2022/12/19 03:27:05;;;;;;;5.82;4.50;;;;;;;-1.59;100.00;99203.91;15285060;19;20523;-53
2022/12/19 03:32:32;;;;;;;5.55;4.32;;;;;;;-1.54;100.00;99201.09;15289022;19;20026;-51
2022/12/19 03:38:03;;;;;;;5.93;4.20;;;;;;;-1.48;100.00;99186.75;15288426;19;20473;-50
2022/12/19 03:43:30;;;;;;;4.97;4.05;;;;;;;-1.41;100.00;99182.91;15287560;19;20591;-51
2022/12/19 03:48:57;;;;;;;4.65;3.80;;;;;;;-1.33;100.00;99188.72;15277486;19;20015;-51
2022/12/19 03:54:35;;;;;;;5.13;4.43;;;;;;;-1.32;100.00;99179.84;15285048;19;20011;-50
2022/12/19 04:00:04;;;;;;;4.75;4.10;;;;;;;-1.26;100.00;99163.75;15286780;19;20003;-51
2022/12/19 04:05:32;;;;;;;5.82;4.20;;;;;;;-1.21;100.00;99160.88;15287461;19;20014;-53
2022/12/19 04:11:05;;;;;;;4.53;3.97;;;;;;;-1.16;100.00;99160.69;15284985;19;20018;-52
2022/12/19 04:16:37;;;;;;;5.15;4.07;;;;;;;-1.10;100.00;99163.03;15287356;19;20018;-51
2022/12/19 04:22:09;;;;;;;4.78;4.28;;;;;;;-1.04;100.00;99169.81;15275303;19;20518;-51
2022/12/19 04:27:39;;;;;;;4.53;4.00;;;;;;;-1.02;100.00;99167.97;15286249;19;20374;-50
2022/12/19 04:33:04;;;;;;;5.50;4.43;;;;;;;-1.00;100.00;99188.13;15285498;19;20372;-50
2022/12/19 04:38:28;;;;;;;5.45;4.18;;;;;;;-1.01;100.00;99183.81;15284686;19;20019;-49
2022/12/19 04:43:56;;;;;;;4.80;4.13;;;;;;;-0.99;100.00;99160.75;15281622;19;20019;-51
2022/12/19 04:49:20;;;;;;;4.85;4.20;;;;;;;-1.00;100.00;99161.69;15282940;19;20018;-54
2022/12/19 04:54:51;;;;;;;5.75;4.68;;;;;;;-0.99;100.00;99166.03;15275040;19;20016;-50
2022/12/19 05:00:19;;;;;;;5.45;4.63;;;;;;;-0.97;100.00;99172.13;15280812;19;20363;-52
2022/12/19 05:05:43;;;;;;;5.38;4.60;;;;;;;-0.93;100.00;99165.78;15284995;19;20014;-53
2022/12/19 05:11:09;;;;;;;5.70;4.75;;;;;;;-0.95;100.00;99175.56;15279566;19;20022;-52
2022/12/19 05:16:39;;;;;;;5.55;4.78;;;;;;;-0.94;100.00;99161.41;15283098;19;20025;-50
2022/12/19 05:22:04;;;;;;;5.80;4.80;;;;;;;-0.90;100.00;99174.50;15278098;19;20093;-52
2022/12/19 05:27:28;;;;;;;5.35;4.63;;;;;;;-0.93;100.00;99168.44;15280293;19;20132;-50
2022/12/19 05:32:55;;;;;;;5.63;4.68;;;;;;;-0.93;100.00;99191.34;15284427;19;20237;-51
2022/12/19 05:38:20;;;;;;;5.57;4.97;;;;;;;-0.94;100.00;99169.34;15280608;19;20081;-53
2022/12/19 05:43:45;;;;;;;7.13;4.70;;;;;;;-0.91;100.00;99175.44;15276726;19;20019;-52
2022/12/19 05:49:12;;;;;;;5.32;4.75;;;;;;;-0.89;100.00;99165.66;15280685;19;20022;-52
2022/12/19 05:54:43;;;;;;;5.88;4.60;;;;;;;-0.87;100.00;99164.63;15268796;19;20019;-50
2022/12/19 06:00:11;;;;;;;5.30;4.60;;;;;;;-0.85;100.00;99165.44;15288618;19;20047;-51
2022/12/19 06:05:38;;;;;;;5.20;4.70;;;;;;;-0.82;100.00;99151.19;15294695;19;20074;-50
2022/12/19 06:11:04;;;;;;;6.07;5.40;;;;;;;-0.80;100.00;99146.69;15289704;19;20491;-51
2022/12/19 06:16:30;;;;;;;5.50;4.90;;;;;;;-0.77;100.00;99157.16;15295441;19;20018;-51
2022/12/19 06:21:58;;;;;;;6.20;5.30;;;;;;;-0.74;100.00;99142.91;15290865;19;20384;-51
2022/12/19 06:27:22;;;;;;;6.38;5.60;;;;;;;-0.73;100.00;99104.94;15284695;19;20031;-50
2022/12/19 06:32:47;;;;;;;7.25;5.28;;;;;;;-0.73;100.00;99124.31;15297167;19;20021;-51
2022/12/19 06:38:14;;;;;;;6.95;5.32;;;;;;;-0.73;100.00;99119.00;15290038;19;20022;-51
2022/12/19 06:43:39;;;;;;;7.03;5.57;;;;;;;-0.76;100.00;99105.91;15288866;19;20074;-53
2022/12/19 06:49:09;;;;;;;7.60;6.25;;;;;;;-0.78;100.00;99126.31;15289064;19;20022;-51
2022/12/19 06:54:43;;;;;;;7.10;6.10;;;;;;;-0.82;100.00;99115.00;15285741;19;20039;-51
2022/12/19 07:00:10;;;;;;;7.80;6.60;;;;;;;-0.81;100.00;99134.41;15277542;19;20015;-52
2022/12/19 07:05:34;;;;;;;10.30;6.63;;;;;;;-0.87;100.00;99135.53;15290482;19;20359;-50
2022/12/19 07:11:01;;;;;;;7.63;6.13;;;;;;;-0.89;100.00;99129.47;15285275;19;20011;-53
2022/12/19 07:16:26;;;;;;;6.93;6.15;;;;;;;-0.89;100.00;99133.91;15290444;19;20021;-50
2022/12/19 07:21:51;;;;;;;7.85;6.43;;;;;;;-0.88;100.00;99125.88;15288615;19;20014;-51
2022/12/19 07:27:18;;;;;;;7.38;6.57;;;;;;;-0.88;100.00;99125.03;15288631;19;20014;-50
2022/12/19 07:32:52;;;;;;;7.55;6.53;;;;;;;-0.90;100.00;99127.75;15277624;19;20018;-51
2022/12/19 07:38:16;;;;;;;7.68;6.78;;;;;;;-0.87;100.00;99122.31;15285777;19;20066;-50
2022/12/19 07:43:46;;;;;;;7.68;6.63;;;;;;;-0.86;100.00;99115.22;15281893;19;20022;-51
2022/12/19 07:49:10;;;;;;;7.93;7.00;;;;;;;-0.84;100.00;99121.31;15284184;19;20032;-51
2022/12/19 07:54:47;;;;;;;8.43;7.15;;;;;;;-0.81;100.00;99126.47;15277736;19;20085;-53
2022/12/19 08:00:16;;;;;;;8.32;7.07;;;;;;;-0.80;100.00;99121.09;15284703;19;20029;-51
2022/12/19 08:05:41;;;;;;;7.80;7.00;;;;;;;-0.78;100.00;99116.59;15270983;19;20463;-51
2022/12/19 08:11:11;;;;;;;8.43;7.47;;;;;;;-0.74;100.00;99130.53;14772875;19;10000900;-50
2022/12/19 08:16:39;;;;;;;8.25;7.35;;;;;;;-0.69;100.00;99125.88;15286478;19;20027;-50
2022/12/19 08:22:24;;;;;;;8.65;7.70;;;;;;;-0.66;100.00;99123.09;15281583;19;20045;-52
2022/12/19 08:27:49;;;;;;;8.90;7.70;;;;;;;-0.60;100.00;99123.72;15284764;19;20014;-50
2022/12/19 08:33:17;;;;;;;8.80;7.45;;;;;;;-0.57;100.00;99118.28;15284887;19;20531;-51
2022/12/19 08:38:41;;;;;;;9.65;8.25;;;;;;;-0.53;100.00;99122.50;15271894;19;20111;-51
2022/12/19 08:44:06;;;;;;;9.48;7.60;;;;;;;-0.52;100.00;99119.78;15281886;19;20706;-54
2022/12/19 08:49:33;;;;;;;8.43;7.20;;;;;;;-0.44;100.00;99118.53;15280190;19;20015;-50
2022/12/19 08:55:04;;;;;;;8.35;7.45;;;;;;;-0.36;100.00;99133.13;15277152;19;20043;-51
2022/12/19 09:00:29;;;;;;;9.02;7.57;;;;;;;-0.27;100.00;99136.25;15279531;19;20054;-56
2022/12/19 09:06:03;;;;;;;10.05;7.85;;;;;;;-0.22;100.00;99126.31;15281890;19;20070;-54
2022/12/19 09:11:36;;;;;;;9.27;7.97;;;;;;;-0.17;100.00;99126.91;15268235;19;20024;-51
2022/12/19 09:17:06;;;;;;;10.38;7.97;;;;;;;-0.16;100.00;99113.63;15283565;19;20027;-51
2022/12/19 09:22:34;;;;;;;8.75;7.72;;;;;;;-0.08;100.00;99117.66;15279878;19;20541;-54
2022/12/19 09:27:58;;;;;;;9.90;8.32;;;;;;;-0.03;100.00;99128.91;15282335;19;20023;-52
2022/12/19 09:33:43;;;;;;;8.68;7.70;;;;;;;0.02;100.00;99120.72;15292595;19;20015;-54
2022/12/19 09:39:11;;;;;;;9.65;8.55;;;;;;;0.05;100.00;99120.56;15292910;19;20078;-53
2022/12/19 09:45:07;;;;;;;10.50;8.80;;;;;;;0.10;100.00;99115.88;15289190;19;20014;-80
2022/12/19 09:50:52;;;;;;;;;;;;;;;0.15;100.00;99116.50;15311527;19;20014;-80
2022/12/19 09:56:33;;;;;;;9.20;8.20;;;;;;;0.19;100.00;99122.50;15317153;19;20515;-80
2022/12/19 10:02:24;;;;;;;9.98;8.73;;;;;;;0.24;100.00;99108.09;15314076;19;20014;-80
2022/12/19 10:07:48;;;;;;;10.85;9.05;;;;;;;0.32;100.00;99109.47;15316674;19;20040;-79
2022/12/19 10:13:44;;;;;;;10.18;8.98;;;;;;;0.38;100.00;99104.72;15304610;19;20472;-79
2022/12/19 10:19:13;;;;;;;11.20;9.65;;;;;;;0.44;100.00;99099.09;15317201;19;20018;-79
2022/12/19 10:24:55;;;;;;;11.13;8.85;;;;;;;0.52;100.00;99096.06;15312212;19;20059;-80
2022/12/19 10:30:30;;;;;;;9.80;8.77;;;;;;;0.56;100.00;99089.63;15315318;19;20015;-80
2022/12/19 10:35:58;;;;;;;10.55;8.93;;;;;;;0.64;100.00;99097.19;15315092;19;20026;-80
2022/12/19 10:41:26;;;;;;;10.25;9.10;;;;;;;0.69;100.00;99088.97;15309906;19;20014;-78
2022/12/19 10:47:03;;;;;;;11.57;9.57;;;;;;;0.77;100.00;99082.34;15303920;19;20731;-80
2022/12/19 10:52:55;;;;;;;10.27;9.20;;;;;;;0.86;100.00;99083.63;15311432;19;20058;-81
2022/12/19 10:58:24;;;;;;;10.40;9.25;;;;;;;0.94;100.00;99066.44;15313162;19;20602;-79
2022/12/19 11:03:56;;;;;;;9.88;8.88;;;;;;;0.99;100.00;99069.69;15309879;19;20039;-81
2022/12/19 11:09:26;;;;;;;10.18;8.60;;;;;;;1.04;100.00;99060.53;15312825;19;20010;-80
2022/12/19 11:14:59;;;;;;;11.35;8.70;;;;;;;1.10;100.00;99048.72;15310053;19;20066;-79
2022/12/19 11:21:00;;;;;;;9.10;8.10;;;;;;;1.19;100.00;99040.25;15299445;19;20023;-81
2022/12/19 11:26:45;;;;;;;10.88;8.65;;;;;;;1.25;100.00;99032.88;15315127;19;20028;-80
2022/12/19 11:32:39;;;;;;;9.57;8.05;;;;;;;1.29;100.00;99034.41;15310996;19;20007;-80
